createdAt,value
2023-08-17T00:01:16.975Z,35.34
2023-08-17T00:03:43.594Z,35.29
2023-08-17T00:06:10.253Z,35.66
2023-08-17T00:08:36.883Z,35.56
2023-08-17T00:11:03.513Z,36.17
2023-08-17T00:13:30.079Z,36.02
2023-08-17T00:15:56.654Z,36.17
2023-08-17T00:18:23.239Z,36.45
2023-08-17T00:20:49.885Z,36.48
2023-08-17T00:23:16.509Z,37.29
2023-08-17T00:25:43.097Z,37.27
2023-08-17T00:28:09.761Z,37.86
2023-08-17T00:30:36.508Z,38.01
2023-08-17T00:33:03.588Z,37.45
2023-08-17T00:35:30.275Z,37.48
2023-08-17T00:37:57.022Z,37.24
2023-08-17T00:40:23.818Z,37.46
2023-08-17T00:42:50.657Z,36.78
2023-08-17T00:45:17.381Z,37.27
2023-08-17T00:47:44.119Z,37.12
2023-08-17T00:50:12.819Z,37.11
2023-08-17T00:52:39.862Z,36.79
2023-08-17T00:55:07.177Z,36.40
2023-08-17T00:57:34.896Z,36.15
2023-08-17T01:00:05.343Z,36.17
2023-08-17T01:02:33.636Z,35.90
2023-08-17T01:05:00.420Z,36.17
2023-08-17T01:07:27.515Z,35.74
2023-08-17T01:09:54.603Z,35.97
2023-08-17T01:12:36.582Z,35.94
2023-08-17T01:15:15.697Z,36.24
2023-08-17T01:18:06.192Z,35.94
2023-08-17T01:20:34.484Z,35.89
2023-08-17T01:23:08.353Z,36.18
2023-08-17T01:25:35.044Z,35.74
2023-08-17T01:28:01.634Z,36.23
2023-08-17T01:30:28.367Z,36.37
2023-08-17T01:33:07.656Z,36.45
2023-08-17T01:35:43.277Z,36.04
2023-08-17T01:38:17.509Z,35.86
2023-08-17T01:40:46.847Z,36.34
2023-08-17T01:43:15.564Z,36.74
2023-08-17T01:45:42.164Z,37.21
2023-08-17T01:48:08.855Z,37.17
2023-08-17T01:50:37.189Z,36.88
2023-08-17T01:53:04.285Z,37.54
2023-08-17T01:55:31.086Z,37.51
2023-08-17T01:57:57.696Z,37.90
2023-08-17T02:00:24.302Z,37.78
2023-08-17T02:02:50.981Z,38.50
2023-08-17T02:05:17.770Z,38.00
2023-08-17T02:07:44.399Z,38.24
2023-08-17T02:10:11.209Z,38.03
2023-08-17T02:12:37.896Z,37.96
2023-08-17T02:15:04.931Z,37.98
2023-08-17T02:17:31.568Z,38.32
2023-08-17T02:19:58.217Z,37.67
2023-08-17T02:22:24.869Z,37.61
2023-08-17T02:24:51.460Z,37.76
2023-08-17T02:27:18.186Z,37.65
2023-08-17T02:29:44.817Z,37.84
2023-08-17T02:32:11.448Z,37.73
2023-08-17T02:34:38.119Z,37.35
2023-08-17T02:37:04.792Z,38.07
2023-08-17T02:39:31.477Z,37.49
2023-08-17T02:41:58.233Z,37.28
2023-08-17T02:44:24.859Z,37.91
2023-08-17T02:46:51.500Z,38.10
2023-08-17T02:49:18.201Z,37.97
2023-08-17T02:51:44.797Z,38.15
2023-08-17T02:54:11.336Z,38.17
2023-08-17T02:56:37.927Z,38.98
2023-08-17T02:59:04.633Z,39.40
2023-08-17T03:01:31.280Z,39.12
2023-08-17T03:03:57.951Z,39.41
2023-08-17T03:06:24.607Z,40.19
2023-08-17T03:08:51.221Z,40.35
2023-08-17T03:11:17.831Z,40.06
2023-08-17T03:13:44.414Z,40.50
2023-08-17T03:16:11.110Z,40.90
2023-08-17T03:18:37.747Z,41.76
2023-08-17T03:21:04.322Z,41.05
2023-08-17T03:23:30.886Z,41.14
2023-08-17T03:25:57.483Z,42.14
2023-08-17T03:28:24.101Z,41.50
2023-08-17T03:30:50.642Z,41.18
2023-08-17T03:33:17.210Z,41.09
2023-08-17T03:35:43.844Z,41.29
2023-08-17T03:38:10.471Z,41.23
2023-08-17T03:40:37.085Z,40.98
2023-08-17T03:43:04.058Z,41.03
2023-08-17T03:45:31.249Z,41.40
2023-08-17T03:47:57.988Z,41.24
2023-08-17T03:50:27.832Z,41.75
2023-08-17T03:52:54.624Z,41.59
2023-08-17T03:55:21.341Z,41.29
2023-08-17T03:57:48.025Z,41.84
2023-08-17T04:00:15.001Z,42.05
2023-08-17T04:02:41.785Z,41.98
2023-08-17T04:05:08.739Z,41.94
2023-08-17T04:07:35.689Z,41.88
2023-08-17T04:10:02.443Z,42.54
2023-08-17T04:12:48.982Z,42.69
2023-08-17T04:15:35.635Z,43.31
2023-08-17T04:18:22.255Z,43.87
2023-08-17T04:20:49.407Z,43.88
2023-08-17T04:23:16.038Z,43.72
2023-08-17T04:25:44.622Z,43.81
2023-08-17T04:28:11.273Z,43.43
2023-08-17T04:30:39.257Z,44.30
2023-08-17T04:33:06.622Z,43.93
2023-08-17T04:35:33.353Z,43.53
2023-08-17T04:38:00.035Z,43.51
2023-08-17T04:40:26.798Z,43.47
2023-08-17T04:42:53.449Z,43.50
2023-08-17T04:45:20.110Z,43.55
2023-08-17T04:47:46.771Z,43.71
2023-08-17T04:50:13.357Z,43.44
2023-08-17T04:52:39.990Z,43.34
2023-08-17T04:55:06.836Z,43.27
2023-08-17T04:57:33.442Z,43.43
2023-08-17T05:00:00.080Z,43.47
2023-08-17T05:02:26.752Z,43.28
2023-08-17T05:04:53.544Z,43.35
2023-08-17T05:07:20.274Z,43.52
2023-08-17T05:09:46.861Z,43.27
2023-08-17T05:12:13.451Z,43.68
2023-08-17T05:14:40.020Z,43.33
2023-08-17T05:17:06.601Z,43.73
2023-08-17T05:19:33.192Z,43.25
2023-08-17T05:21:59.828Z,44.98
2023-08-17T05:24:26.447Z,49.96
2023-08-17T05:26:53.254Z,54.01
2023-08-17T05:29:19.869Z,54.81
2023-08-17T05:31:46.460Z,57.15
2023-08-17T05:34:13.132Z,58.39
2023-08-17T05:36:39.702Z,59.38
2023-08-17T05:39:06.388Z,58.98
2023-08-17T05:41:33.072Z,58.98
2023-08-17T05:43:59.696Z,58.85
2023-08-17T05:46:26.385Z,59.51
2023-08-17T05:48:53.098Z,59.53
2023-08-17T05:51:19.782Z,59.14
2023-08-17T05:53:46.498Z,58.69
2023-08-17T05:56:13.222Z,58.74
2023-08-17T05:58:41.440Z,58.51
2023-08-17T06:01:10.500Z,58.16
2023-08-17T06:03:38.663Z,57.38
2023-08-17T06:06:06.544Z,56.58
2023-08-17T06:08:34.017Z,55.93
2023-08-17T06:11:00.906Z,56.04
2023-08-17T06:13:27.482Z,56.03
2023-08-17T06:15:55.922Z,56.06
2023-08-17T06:18:23.906Z,55.75
2023-08-17T06:20:50.531Z,55.45
2023-08-17T06:23:17.237Z,55.11
2023-08-17T06:25:44.010Z,54.44
2023-08-17T06:28:10.649Z,54.24
2023-08-17T06:30:37.362Z,54.34
2023-08-17T06:33:04.290Z,53.57
2023-08-17T06:35:30.912Z,53.36
2023-08-17T06:37:57.559Z,53.27
2023-08-17T06:40:24.714Z,54.68
2023-08-17T06:42:51.362Z,53.95
2023-08-17T06:45:18.020Z,54.30
2023-08-17T06:47:44.985Z,55.42
2023-08-17T06:50:13.307Z,54.30
2023-08-17T06:52:40.275Z,53.48
2023-08-17T06:55:07.037Z,53.94
2023-08-17T06:57:33.732Z,53.37
2023-08-17T07:00:00.336Z,53.33
2023-08-17T07:02:30.846Z,53.35
2023-08-17T07:07:40.626Z,53.03
2023-08-17T07:10:07.878Z,52.85
2023-08-17T07:12:34.550Z,52.79
2023-08-17T07:15:01.423Z,52.54
2023-08-17T07:17:28.650Z,53.20
2023-08-17T07:20:14.800Z,52.99
2023-08-17T07:22:42.212Z,52.36
2023-08-17T07:25:09.110Z,51.88
2023-08-17T07:27:35.900Z,52.47
2023-08-17T07:30:02.686Z,53.55
2023-08-17T07:32:29.648Z,53.34
2023-08-17T07:34:56.379Z,54.20
2023-08-17T07:37:23.214Z,54.93
2023-08-17T07:39:49.990Z,55.85
2023-08-17T07:42:16.722Z,55.24
2023-08-17T07:44:43.573Z,53.34
2023-08-17T07:47:10.358Z,54.02
2023-08-17T07:49:37.125Z,53.36
2023-08-17T07:52:04.146Z,51.99
2023-08-17T07:54:30.896Z,51.41
2023-08-17T07:56:57.669Z,51.10
2023-08-17T07:59:24.589Z,49.60
2023-08-17T08:01:51.390Z,48.42
2023-08-17T08:04:18.267Z,48.22
2023-08-17T08:06:45.070Z,48.20
2023-08-17T08:09:11.746Z,49.01
2023-08-17T08:11:38.874Z,48.42
2023-08-17T08:14:05.491Z,48.49
2023-08-17T08:16:32.245Z,49.32
2023-08-17T08:18:59.462Z,49.75
2023-08-17T08:21:26.298Z,49.40
2023-08-17T08:23:53.175Z,49.26
2023-08-17T08:26:19.978Z,49.26
2023-08-17T08:28:46.798Z,48.99
2023-08-17T08:31:13.832Z,48.89
2023-08-17T08:33:40.619Z,48.53
2023-08-17T08:36:07.360Z,46.33
2023-08-17T08:38:34.105Z,45.86
2023-08-17T08:41:03.356Z,44.86
2023-08-17T08:43:31.080Z,45.25
2023-08-17T08:46:00.113Z,44.50
2023-08-17T08:48:27.917Z,44.11
2023-08-17T08:50:56.839Z,44.47
2023-08-17T08:53:38.077Z,44.04
2023-08-17T08:56:08.445Z,44.37
2023-08-17T08:58:36.145Z,44.31
2023-08-17T09:03:36.494Z,44.04
2023-08-17T09:06:04.577Z,44.60
2023-08-17T09:08:32.010Z,44.66
2023-08-17T09:10:58.893Z,45.10
2023-08-17T09:13:25.708Z,44.77
2023-08-17T09:15:52.426Z,44.69
2023-08-17T09:18:20.099Z,44.49
2023-08-17T09:20:49.608Z,44.20
2023-08-17T09:23:18.933Z,44.57
2023-08-17T09:25:47.368Z,44.02
2023-08-17T09:28:18.630Z,43.79
2023-08-17T09:30:59.642Z,44.94
2023-08-17T09:33:28.752Z,44.31
2023-08-17T09:35:59.964Z,45.42
2023-08-17T09:38:28.089Z,46.99
2023-08-17T09:40:54.786Z,46.64
2023-08-17T09:43:22.430Z,46.39
2023-08-17T09:45:50.363Z,46.08
2023-08-17T09:48:18.278Z,47.83
2023-08-17T09:50:47.310Z,47.07
2023-08-17T09:53:19.054Z,46.52
2023-08-17T09:55:47.119Z,46.54
2023-08-17T09:58:14.654Z,46.72
2023-08-17T10:00:50.557Z,46.23
2023-08-17T10:03:19.418Z,46.29
2023-08-17T10:05:56.666Z,46.30
2023-08-17T10:08:24.654Z,44.46
2023-08-17T10:13:36.090Z,44.23
2023-08-17T10:16:44.682Z,43.37
2023-08-17T10:19:25.651Z,43.09
2023-08-17T10:22:04.559Z,40.64
2023-08-17T10:24:34.106Z,39.24
2023-08-17T10:27:01.926Z,38.21
2023-08-17T10:29:30.615Z,36.68
2023-08-17T10:31:58.555Z,36.40
2023-08-17T10:34:27.704Z,35.58
2023-08-17T10:36:55.889Z,33.77
2023-08-17T10:39:28.764Z,40.11
2023-08-17T10:41:57.489Z,40.59
2023-08-17T10:44:39.466Z,40.66
2023-08-17T10:47:25.231Z,42.27
2023-08-17T10:49:59.761Z,42.03
2023-08-17T10:52:34.661Z,41.14
2023-08-17T10:55:04.541Z,40.83
2023-08-17T10:57:41.793Z,40.95
2023-08-17T11:00:09.396Z,40.72
2023-08-17T11:02:36.986Z,39.48
2023-08-17T11:05:04.441Z,38.89
2023-08-17T11:07:42.300Z,38.00
2023-08-17T11:10:27.527Z,38.27
2023-08-17T11:12:54.960Z,40.56
2023-08-17T11:15:21.642Z,39.88
2023-08-17T11:17:48.313Z,38.52
2023-08-17T11:20:15.559Z,37.48
2023-08-17T11:22:42.806Z,38.21
2023-08-17T11:25:09.682Z,38.00
2023-08-17T11:27:38.903Z,37.70
2023-08-17T11:30:06.672Z,37.91
2023-08-17T11:32:33.759Z,38.21
2023-08-17T11:35:00.490Z,37.54
2023-08-17T11:37:27.244Z,38.09
2023-08-17T11:39:53.948Z,38.75
2023-08-17T11:42:20.688Z,38.03
2023-08-17T11:44:47.485Z,38.45
2023-08-17T11:47:14.174Z,38.06
2023-08-17T11:49:42.372Z,37.92
2023-08-17T11:52:12.817Z,37.57
2023-08-17T11:54:42.746Z,37.38
2023-08-17T11:57:09.532Z,36.91
2023-08-17T11:59:36.111Z,36.63
2023-08-17T12:02:02.833Z,36.89
2023-08-17T12:04:30.291Z,36.45
2023-08-17T12:06:57.040Z,36.52
2023-08-17T12:09:26.628Z,35.54
2023-08-17T12:12:01.427Z,35.08
2023-08-17T12:14:29.133Z,34.84
2023-08-17T12:16:56.475Z,33.83
2023-08-17T12:19:26.268Z,34.34
2023-08-17T12:21:53.149Z,34.60
2023-08-17T12:24:19.973Z,34.59
2023-08-17T12:26:48.155Z,34.26
2023-08-17T12:29:14.821Z,33.44
2023-08-17T12:31:42.018Z,33.67
2023-08-17T12:34:08.660Z,31.13
2023-08-17T12:36:35.909Z,31.48
2023-08-17T12:39:03.850Z,32.30
2023-08-17T12:41:32.158Z,33.00
2023-08-17T12:43:58.857Z,32.57
2023-08-17T12:46:26.242Z,32.31
2023-08-17T12:48:52.971Z,32.79
2023-08-17T12:51:19.706Z,32.99
2023-08-17T12:53:50.195Z,32.45
2023-08-17T12:56:17.516Z,31.73
2023-08-17T12:58:44.354Z,31.73
2023-08-17T13:01:11.050Z,31.51
2023-08-17T13:03:37.765Z,30.44
2023-08-17T13:06:04.613Z,28.06
2023-08-17T13:08:31.327Z,28.72
2023-08-17T13:10:58.084Z,29.79
2023-08-17T13:13:24.845Z,29.42
2023-08-17T13:15:51.530Z,29.00
2023-08-17T13:18:18.144Z,28.26
2023-08-17T13:20:45.140Z,27.17
2023-08-17T13:23:12.237Z,27.97
2023-08-17T13:25:38.856Z,27.03
2023-08-17T13:28:05.723Z,27.13
2023-08-17T13:30:32.402Z,26.46
2023-08-17T13:32:59.203Z,26.26
2023-08-17T13:35:26.011Z,25.67
2023-08-17T13:37:53.498Z,25.20
2023-08-17T13:40:20.481Z,24.92
2023-08-17T13:42:47.214Z,24.87
2023-08-17T13:45:13.896Z,23.34
2023-08-17T13:47:40.542Z,22.88
2023-08-17T13:50:07.675Z,22.62
2023-08-17T13:52:34.347Z,22.13
2023-08-17T13:55:01.028Z,21.95
2023-08-17T13:57:27.729Z,21.26
2023-08-17T13:59:54.436Z,20.78
2023-08-17T14:02:21.077Z,20.54
2023-08-17T14:04:47.706Z,20.55
2023-08-17T14:07:14.379Z,20.58
2023-08-17T14:09:46.547Z,19.96
2023-08-17T14:12:18.163Z,19.57
2023-08-17T14:14:44.784Z,19.78
2023-08-17T14:17:11.420Z,19.27
2023-08-17T14:19:38.093Z,18.91
2023-08-17T14:22:04.971Z,19.27
2023-08-17T14:24:31.666Z,19.19
2023-08-17T14:26:58.352Z,18.97
2023-08-17T14:29:25.092Z,18.90
2023-08-17T14:31:56.149Z,19.08
2023-08-17T14:34:23.116Z,19.40
2023-08-17T14:36:49.853Z,19.33
2023-08-17T14:39:16.531Z,20.03
2023-08-17T14:41:46.667Z,19.87
2023-08-17T14:44:13.557Z,19.43
2023-08-17T14:46:40.323Z,19.49
2023-08-17T14:49:07.090Z,19.54
2023-08-17T14:51:39.326Z,19.49
2023-08-17T14:54:07.550Z,20.13
2023-08-17T14:56:34.178Z,20.60
2023-08-17T14:59:00.931Z,21.02
2023-08-17T15:01:27.586Z,21.13
2023-08-17T15:03:54.322Z,20.63
2023-08-17T15:06:32.331Z,20.81
2023-08-17T15:09:01.216Z,20.44
2023-08-17T15:11:28.018Z,20.41
2023-08-17T15:13:54.720Z,19.76
2023-08-17T15:16:25.144Z,20.50
2023-08-17T15:18:52.490Z,20.52
2023-08-17T15:21:19.110Z,20.63
2023-08-17T15:23:45.715Z,20.77
2023-08-17T15:26:12.309Z,20.63
2023-08-17T15:28:42.353Z,21.09
2023-08-17T15:31:09.009Z,21.26
2023-08-17T15:33:35.722Z,21.41
2023-08-17T15:36:02.388Z,21.10
2023-08-17T15:38:29.069Z,21.99
2023-08-17T15:40:55.894Z,22.42
2023-08-17T15:43:22.597Z,22.31
2023-08-17T15:45:52.746Z,22.21
2023-08-17T15:48:19.794Z,21.94
2023-08-17T15:50:46.480Z,22.07
2023-08-17T15:53:13.122Z,21.96
2023-08-17T15:55:39.772Z,21.88
2023-08-17T15:58:06.558Z,21.76
2023-08-17T16:00:33.340Z,22.45
2023-08-17T16:03:00.104Z,22.28
2023-08-17T16:05:26.835Z,22.04
2023-08-17T16:07:53.447Z,21.72
2023-08-17T16:10:20.138Z,22.12
2023-08-17T16:12:46.797Z,21.71
2023-08-17T16:15:13.376Z,21.35
2023-08-17T16:17:40.055Z,21.95
2023-08-17T16:20:08.941Z,21.52
2023-08-17T16:22:35.653Z,21.78
2023-08-17T16:25:02.320Z,22.05
2023-08-17T16:27:29.533Z,22.33
2023-08-17T16:29:56.387Z,22.06
2023-08-17T16:32:23.050Z,21.66
2023-08-17T16:34:49.597Z,22.12
2023-08-17T16:37:16.677Z,22.04
2023-08-17T16:39:43.178Z,22.36
2023-08-17T16:42:09.825Z,22.63
2023-08-17T16:44:36.384Z,22.89
2023-08-17T16:47:03.024Z,23.31
2023-08-17T16:49:30.496Z,23.44
2023-08-17T16:51:59.636Z,23.77
2023-08-17T16:54:26.176Z,24.12
2023-08-17T16:56:54.168Z,24.33
2023-08-17T16:59:21.133Z,24.88
2023-08-17T17:01:47.730Z,24.64
2023-08-17T17:04:14.408Z,24.62
2023-08-17T17:06:41.089Z,24.55
2023-08-17T17:09:07.671Z,24.21
2023-08-17T17:11:34.225Z,24.73
2023-08-17T17:14:01.018Z,24.52
2023-08-17T17:16:27.594Z,24.11
2023-08-17T17:18:54.131Z,23.87
2023-08-17T17:21:20.672Z,23.93
2023-08-17T17:23:49.194Z,23.48
2023-08-17T17:26:15.774Z,22.79
2023-08-17T17:28:42.353Z,23.77
2023-08-17T17:31:08.961Z,23.48
2023-08-17T17:33:35.738Z,23.37
2023-08-17T17:36:02.399Z,23.59
2023-08-17T17:38:28.987Z,23.51
2023-08-17T17:40:57.553Z,23.42
2023-08-17T17:43:24.564Z,23.74
2023-08-17T17:45:51.316Z,23.70
2023-08-17T17:48:18.695Z,23.96
2023-08-17T17:50:45.889Z,23.43
2023-08-17T17:53:12.600Z,23.62
2023-08-17T17:55:39.265Z,23.95
2023-08-17T17:58:05.973Z,24.25
2023-08-17T18:00:33.198Z,24.73
2023-08-17T18:03:13.980Z,24.59
2023-08-17T18:05:43.093Z,24.67
2023-08-17T18:08:09.704Z,25.09
2023-08-17T18:10:41.499Z,25.10
2023-08-17T18:13:09.269Z,25.31
2023-08-17T18:15:38.805Z,25.24
2023-08-17T18:18:06.674Z,25.60
2023-08-17T18:20:33.855Z,26.25
2023-08-17T18:23:00.663Z,26.77
2023-08-17T18:25:27.551Z,26.84
2023-08-17T18:27:54.461Z,27.41
2023-08-17T18:30:21.137Z,27.99
2023-08-17T18:32:47.816Z,28.37
2023-08-17T18:35:14.659Z,28.54
2023-08-17T18:37:41.292Z,29.02
2023-08-17T18:40:08.499Z,29.62
2023-08-17T18:42:35.191Z,29.86
2023-08-17T18:45:01.909Z,30.24
2023-08-17T18:47:28.734Z,30.10
2023-08-17T18:49:55.474Z,30.21
2023-08-17T18:52:22.130Z,30.61
2023-08-17T18:55:01.943Z,31.04
2023-08-17T18:57:29.330Z,31.20
2023-08-17T18:59:56.819Z,31.03
2023-08-17T19:02:23.599Z,31.23
2023-08-17T19:04:50.315Z,31.48
2023-08-17T19:07:17.483Z,32.01
2023-08-17T19:09:46.378Z,32.04
2023-08-17T19:12:12.978Z,32.63
2023-08-17T19:14:39.500Z,32.80
2023-08-17T19:17:06.034Z,33.17
2023-08-17T19:19:32.692Z,33.36
2023-08-17T19:21:59.396Z,33.31
2023-08-17T19:24:25.970Z,32.93
2023-08-17T19:26:52.496Z,33.40
2023-08-17T19:29:19.069Z,33.92
2023-08-17T19:31:45.793Z,33.90
2023-08-17T19:34:12.484Z,33.85
2023-08-17T19:36:39.156Z,34.56
2023-08-17T19:39:05.715Z,34.09
2023-08-17T19:41:32.222Z,33.96
2023-08-17T19:43:58.735Z,33.97
2023-08-17T19:46:26.033Z,34.01
2023-08-17T19:49:12.687Z,33.98
2023-08-17T19:51:39.297Z,33.80
2023-08-17T19:54:06.009Z,33.49
2023-08-17T19:56:32.771Z,32.96
2023-08-17T19:59:00.393Z,32.80
2023-08-17T20:01:26.970Z,33.03
2023-08-17T20:03:53.605Z,32.94
2023-08-17T20:06:20.161Z,33.06
2023-08-17T20:08:46.789Z,32.84
2023-08-17T20:11:13.711Z,33.39
2023-08-17T20:13:40.267Z,33.07
2023-08-17T20:16:06.915Z,32.76
2023-08-17T20:18:33.634Z,33.37
2023-08-17T20:21:00.208Z,32.78
2023-08-17T20:23:26.747Z,33.22
2023-08-17T20:25:55.582Z,33.21
2023-08-17T20:28:24.692Z,33.94
2023-08-17T20:30:59.465Z,33.15
2023-08-17T20:33:26.709Z,33.32
2023-08-17T20:35:54.966Z,33.20
2023-08-17T20:38:22.658Z,33.72
2023-08-17T20:40:49.242Z,33.33
2023-08-17T20:43:15.880Z,33.18
2023-08-17T20:45:43.555Z,33.67
2023-08-17T20:48:10.724Z,33.42
2023-08-17T20:50:38.270Z,33.49
2023-08-17T20:53:08.707Z,33.55
2023-08-17T20:55:40.063Z,34.53
2023-08-17T20:58:06.845Z,34.97
2023-08-17T21:00:34.156Z,34.64
2023-08-17T21:03:00.722Z,34.92
2023-08-17T21:05:28.499Z,34.63
2023-08-17T21:07:55.949Z,34.32
2023-08-17T21:10:24.161Z,34.80
2023-08-17T21:12:50.697Z,34.59
2023-08-17T21:15:17.403Z,34.67
2023-08-17T21:17:44.076Z,34.39
2023-08-17T21:20:11.049Z,34.14
2023-08-17T21:22:39.344Z,34.75
2023-08-17T21:25:06.791Z,34.30
2023-08-17T21:27:33.308Z,34.73
2023-08-17T21:30:00.989Z,35.04
2023-08-17T21:32:27.904Z,34.66
2023-08-17T21:34:54.481Z,35.09
2023-08-17T21:37:29.385Z,35.36
2023-08-17T21:39:56.466Z,36.62
2023-08-17T21:42:23.133Z,36.30
2023-08-17T21:44:50.412Z,35.40
2023-08-17T21:47:17.153Z,35.43
2023-08-17T21:49:46.972Z,35.95
2023-08-17T21:52:17.383Z,35.96
2023-08-17T21:54:43.925Z,36.23
2023-08-17T21:57:10.467Z,36.49
2023-08-17T21:59:37.068Z,36.42
2023-08-17T22:02:03.986Z,36.34
2023-08-17T22:04:30.569Z,36.68
2023-08-17T22:06:57.118Z,35.85
2023-08-17T22:09:23.687Z,36.33
2023-08-17T22:11:50.254Z,36.22
2023-08-17T22:14:16.789Z,36.31
2023-08-17T22:16:43.379Z,36.73
2023-08-17T22:19:09.932Z,37.42
2023-08-17T22:21:36.495Z,37.23
2023-08-17T22:24:03.166Z,37.34
2023-08-17T22:26:29.701Z,36.77
2023-08-17T22:28:56.232Z,36.91
2023-08-17T22:31:22.821Z,37.08
2023-08-17T22:33:49.377Z,37.06
2023-08-17T22:36:15.931Z,38.00
2023-08-17T22:38:42.460Z,37.48
2023-08-17T22:41:09.036Z,37.93
2023-08-17T22:43:35.663Z,37.92
2023-08-17T22:46:03.669Z,38.04
2023-08-17T22:48:30.329Z,38.33
2023-08-17T22:50:57.039Z,38.06
2023-08-17T22:53:23.604Z,38.27
2023-08-17T22:55:50.587Z,38.74
2023-08-17T22:58:17.182Z,38.45
2023-08-17T23:00:43.909Z,38.33
2023-08-17T23:03:10.480Z,38.73
2023-08-17T23:05:37.017Z,38.66
2023-08-17T23:08:03.964Z,39.01
2023-08-17T23:10:30.505Z,38.96
2023-08-17T23:12:57.036Z,38.99
2023-08-17T23:15:23.667Z,39.43
2023-08-17T23:17:50.262Z,39.72
2023-08-17T23:20:16.858Z,39.56
2023-08-17T23:22:43.449Z,39.92
2023-08-17T23:25:09.983Z,39.18
2023-08-17T23:27:36.578Z,39.49
2023-08-17T23:30:03.293Z,38.84
2023-08-17T23:32:29.913Z,38.74
2023-08-17T23:34:56.737Z,38.17
2023-08-17T23:37:23.428Z,38.35
2023-08-17T23:39:50.059Z,38.21
2023-08-17T23:42:16.614Z,38.14
2023-08-17T23:44:43.236Z,37.75
2023-08-17T23:47:11.829Z,38.06
2023-08-17T23:52:19.977Z,38.44
2023-08-17T23:54:46.510Z,38.20
2023-08-17T23:57:13.072Z,38.42
2023-08-17T23:59:39.619Z,38.49
